プラハ の空港の天気 - METARとTAF

ルズィニエ国際空港(プラハ) ( LKPR / PRG ) - チェコ プラハ
飛行場実況気象(Metar)
観測時間09/22 19:30 CEST (09/22 17:30 UTC)
風向・風速東 2m/s
視程10km以上
天気現象
なし
気温20℃
湿度60%
気圧1010hPa
METARLKPR 221730Z 08004KT CAVOK 20/12 Q1010 NOSIG
過去の天気等 Google飛行場航空写真 Wunderground天気予報

過去48時間のMETAR

飛行場予報(TAF)
発表時間: 9/22 19:00 CEST (9/22 17:00 UTC)
予報対象時間: 22日20時 CEST ~ 24日2時 CEST
風向・風速南南東 3m/s
視程10km以上
なし
23日3時 CEST ~ 23日5時 CEST に徐々に
視程2000m
天気現象もや
なし
23日5時 CEST ~ 23日8時 CEST に一時的に
風向・風速不定 1m/s
視程1200m
天気現象もや
全天の4割程度の雲 雲底高度 60m
23日5時 CEST ~ 23日8時 CEST に 確率 30% で一時的に
視程600m
天気現象
全天の8割程度の雲 雲底高度 60m
23日8時 CEST ~ 23日11時 CEST に徐々に
風向・風速西南西 3m/s
視程10km以上
全天の4割程度の雲 雲底高度 1310m
23日11時 CEST ~ 23日22時 CEST に一時的に
天気現象しゅう雨
全天の8割程度の塔状積雲 雲底高度 1220m
23日12時 CEST ~ 23日19時 CEST に 確率 30% で一時的に
視程4000m
天気現象雷雨
全天の4割程度の積乱雲 雲底高度 910m
24日1時 CEST ~ 24日2時 CEST に徐々に
視程5000m
天気現象もや
なし
TAF LKPR 221700Z 2218/2400 16005KT CAVOK
BECMG 2301/2303 2000 BR NSC
TEMPO 2303/2306 VRB02KT 1200 BR SCT002
PROB30 TEMPO 2303/2306 0600 FG BKN002
BECMG 2306/2309 24006KT 9999 SCT043
TEMPO 2309/2320 SHRA BKN040TCU
PROB30 TEMPO 2310/2317 4000 TSRA SCT030CB
BECMG 2323/2400 5000 BR NSC